createdAt,value
2022-08-05T00:01:35.472Z,56.90
2022-08-05T00:04:08.167Z,56.90
2022-08-05T00:06:36.794Z,57.30
2022-08-05T00:09:12.749Z,57.80
2022-08-05T00:11:48.666Z,58.40
2022-08-05T00:14:18.087Z,58.80
2022-08-05T00:16:53.348Z,59.20
2022-08-05T00:19:33.273Z,58.40
2022-08-05T00:22:11.462Z,57.80
2022-08-05T00:24:42.394Z,58.30
2022-08-05T00:27:14.095Z,58.90
2022-08-05T00:29:45.342Z,59.20
2022-08-05T00:32:14.926Z,59.00
2022-08-05T00:35:04.349Z,58.10
2022-08-05T00:37:51.190Z,57.50
2022-08-05T00:40:27.840Z,58.00
2022-08-05T00:42:58.834Z,58.40
2022-08-05T00:45:38.970Z,58.70
2022-08-05T00:48:27.429Z,57.90
2022-08-05T00:51:00.202Z,57.20
2022-08-05T00:54:00.842Z,57.50
2022-08-05T00:56:25.147Z,57.90
2022-08-05T00:58:52.922Z,58.20
2022-08-05T01:01:24.932Z,57.60
2022-08-05T01:04:13.837Z,57.30
2022-08-05T01:06:46.720Z,57.50
2022-08-05T01:09:20.343Z,57.90
2022-08-05T01:11:53.255Z,58.20
2022-08-05T01:14:28.267Z,58.00
2022-08-05T01:17:21.913Z,57.30
2022-08-05T01:20:03.227Z,57.20
2022-08-05T01:22:59.038Z,57.60
2022-08-05T01:25:40.855Z,58.00
2022-08-05T01:28:33.390Z,58.10
2022-08-05T01:31:03.150Z,57.20
2022-08-05T01:33:49.006Z,56.60
2022-08-05T01:36:21.082Z,56.90
2022-08-05T01:39:01.177Z,57.30
2022-08-05T01:41:34.476Z,57.80
2022-08-05T01:44:03.256Z,57.20
2022-08-05T01:46:42.417Z,56.70
2022-08-05T01:49:22.816Z,57.00
2022-08-05T01:52:01.781Z,57.40
2022-08-05T01:54:53.414Z,57.40
2022-08-05T01:58:10.631Z,56.70
2022-08-05T02:00:37.611Z,56.50
2022-08-05T02:03:41.691Z,57.00
2022-08-05T02:06:37.380Z,57.50
2022-08-05T02:09:00.966Z,57.10
2022-08-05T02:11:48.192Z,55.60
2022-08-05T02:14:32.738Z,55.20
2022-08-05T02:18:14.568Z,55.50
2022-08-05T02:20:11.475Z,55.90
2022-08-05T02:22:48.882Z,55.80
2022-08-05T02:25:25.971Z,54.90
2022-08-05T02:27:58.389Z,54.40
2022-08-05T02:30:35.902Z,54.60
2022-08-05T02:33:06.684Z,54.40
2022-08-05T02:35:37.530Z,55.20
2022-08-05T02:38:19.408Z,54.70
2022-08-05T02:40:52.315Z,53.60
2022-08-05T02:43:22.449Z,53.40
2022-08-05T02:45:54.100Z,53.80
2022-08-05T02:48:29.715Z,54.70
2022-08-05T02:51:02.629Z,55.00
2022-08-05T02:53:39.117Z,54.00
2022-08-05T02:56:15.902Z,52.80
2022-08-05T02:58:51.219Z,53.30
2022-08-05T03:01:25.682Z,54.40
2022-08-05T03:04:12.938Z,55.10
2022-08-05T03:06:57.552Z,55.40
2022-08-05T03:09:37.460Z,54.30
2022-08-05T03:12:10.460Z,53.60
2022-08-05T03:14:39.046Z,54.00
2022-08-05T03:17:14.277Z,54.40
2022-08-05T03:19:42.452Z,54.80
2022-08-05T03:22:16.449Z,54.80
2022-08-05T03:24:51.056Z,54.10
2022-08-05T03:27:22.038Z,53.60
2022-08-05T03:30:08.247Z,54.10
2022-08-05T03:32:38.265Z,55.00
2022-08-05T03:35:07.021Z,55.70
2022-08-05T03:37:44.771Z,56.00
2022-08-05T03:40:24.589Z,55.30
2022-08-05T03:43:01.382Z,54.00
2022-08-05T03:45:57.970Z,54.40
2022-08-05T03:48:35.079Z,55.10
2022-08-05T03:52:37.667Z,55.40
2022-08-05T03:56:01.037Z,55.90
2022-08-05T03:57:48.463Z,55.00
2022-08-05T04:00:26.411Z,54.90
2022-08-05T04:02:59.000Z,55.50
2022-08-05T04:05:33.836Z,56.00
2022-08-05T04:08:14.648Z,56.30
2022-08-05T04:10:58.440Z,56.60
2022-08-05T04:13:51.383Z,55.80
2022-08-05T04:16:16.783Z,55.90
2022-08-05T04:18:54.951Z,56.20
2022-08-05T04:22:08.235Z,56.80
2022-08-05T04:24:19.678Z,57.10
2022-08-05T04:26:51.054Z,56.70
2022-08-05T04:29:19.771Z,55.90
2022-08-05T04:31:48.484Z,55.80
2022-08-05T04:34:33.710Z,56.30
2022-08-05T04:37:04.843Z,56.60
2022-08-05T04:39:35.498Z,56.80
2022-08-05T04:42:03.937Z,57.00
2022-08-05T04:44:31.908Z,56.40
2022-08-05T04:47:09.618Z,56.20
2022-08-05T04:50:01.633Z,56.50
2022-08-05T04:52:28.271Z,57.00
2022-08-05T04:54:57.779Z,57.40
2022-08-05T04:57:29.294Z,57.80
2022-08-05T05:00:09.162Z,56.50
2022-08-05T05:02:41.710Z,56.10
2022-08-05T05:05:16.499Z,56.40
2022-08-05T05:07:56.235Z,56.80
2022-08-05T05:10:34.369Z,57.50
2022-08-05T05:13:04.227Z,57.80
2022-08-05T05:15:57.663Z,57.60
2022-08-05T05:18:30.959Z,56.60
2022-08-05T05:21:03.113Z,56.60
2022-08-05T05:24:02.179Z,56.90
2022-08-05T05:26:19.957Z,57.20
2022-08-05T05:28:57.128Z,57.70
2022-08-05T05:31:25.162Z,58.10
2022-08-05T05:34:02.631Z,57.90
2022-08-05T05:36:31.780Z,56.80
2022-08-05T05:38:59.741Z,57.40
2022-08-05T05:41:39.962Z,56.90
2022-08-05T05:44:35.921Z,57.70
2022-08-05T05:46:58.046Z,57.30
2022-08-05T05:49:26.771Z,57.00
2022-08-05T05:51:55.292Z,56.10
2022-08-05T05:54:35.460Z,55.20
2022-08-05T05:57:13.821Z,55.50
2022-08-05T05:59:48.784Z,56.90
2022-08-05T06:02:37.452Z,57.60
2022-08-05T06:05:16.601Z,57.70
2022-08-05T06:08:01.397Z,57.00
2022-08-05T06:10:36.203Z,56.70
2022-08-05T06:13:05.778Z,56.50
2022-08-05T06:16:29.649Z,57.00
2022-08-05T06:18:21.606Z,57.00
2022-08-05T06:21:00.426Z,57.30
2022-08-05T06:23:32.147Z,57.70
2022-08-05T06:26:23.916Z,58.30
2022-08-05T06:28:53.140Z,57.50
2022-08-05T06:31:22.028Z,56.40
2022-08-05T06:34:06.754Z,56.60
2022-08-05T06:36:37.295Z,56.60
2022-08-05T06:39:22.029Z,57.80
2022-08-05T06:42:04.108Z,58.70
2022-08-05T06:44:32.871Z,58.90
2022-08-05T06:47:02.398Z,58.10
2022-08-05T06:50:00.282Z,58.60
2022-08-05T06:52:36.927Z,58.70
2022-08-05T06:55:07.124Z,57.20
2022-08-05T06:57:57.521Z,56.10
2022-08-05T07:00:24.756Z,56.40
2022-08-05T07:02:54.462Z,57.00
2022-08-05T07:05:31.870Z,57.70
2022-08-05T07:08:07.049Z,58.50
2022-08-05T07:10:53.140Z,59.00
2022-08-05T07:13:57.104Z,58.10
2022-08-05T07:17:56.964Z,58.10
2022-08-05T07:22:30.089Z,57.30
2022-08-05T07:25:21.976Z,57.70
2022-08-05T07:28:28.228Z,58.30
2022-08-05T07:30:59.081Z,58.80
2022-08-05T07:33:37.062Z,58.50
2022-08-05T07:36:19.936Z,58.30
2022-08-05T07:38:49.209Z,58.10
2022-08-05T07:42:12.993Z,58.40
2022-08-05T07:44:18.545Z,58.60
2022-08-05T07:46:50.132Z,58.20
2022-08-05T07:49:19.902Z,58.30
2022-08-05T07:51:52.870Z,59.10
2022-08-05T07:54:31.413Z,58.00
2022-08-05T07:57:41.973Z,57.50
2022-08-05T07:59:50.881Z,58.10
2022-08-05T08:02:19.016Z,57.80
2022-08-05T08:04:47.995Z,57.30
2022-08-05T08:07:22.784Z,57.10
2022-08-05T08:09:53.200Z,57.40
2022-08-05T08:12:33.348Z,57.30
2022-08-05T08:15:13.861Z,57.70
2022-08-05T08:17:46.152Z,57.40
2022-08-05T08:20:43.574Z,56.80
2022-08-05T08:23:59.863Z,56.60
2022-08-05T08:26:02.859Z,56.80
2022-08-05T08:28:37.106Z,55.90
2022-08-05T08:31:14.892Z,55.60
2022-08-05T08:33:45.934Z,56.50
2022-08-05T08:36:38.161Z,56.90
2022-08-05T08:39:15.143Z,57.50
2022-08-05T08:41:52.200Z,56.60
2022-08-05T08:45:17.857Z,56.70
2022-08-05T08:48:07.648Z,56.70
2022-08-05T08:50:30.908Z,57.30
2022-08-05T08:53:12.330Z,56.60
2022-08-05T08:56:03.766Z,58.40
2022-08-05T08:58:43.414Z,57.20
2022-08-05T09:01:18.093Z,56.80
2022-08-05T09:03:54.209Z,58.30
2022-08-05T09:06:28.216Z,58.50
2022-08-05T09:09:01.490Z,58.60
2022-08-05T09:11:53.167Z,58.40
2022-08-05T09:14:57.619Z,57.80
2022-08-05T09:17:39.900Z,58.50
2022-08-05T09:20:05.149Z,58.00
2022-08-05T09:23:07.778Z,58.00
2022-08-05T09:26:03.155Z,56.80
2022-08-05T09:28:33.413Z,56.70
2022-08-05T09:31:44.008Z,55.90
2022-08-05T09:34:10.400Z,56.10
2022-08-05T09:36:56.295Z,56.30
2022-08-05T09:39:44.965Z,56.10
2022-08-05T09:42:24.158Z,55.60
2022-08-05T09:45:17.456Z,55.80
2022-08-05T09:47:55.264Z,52.20
2022-08-05T09:50:38.830Z,52.40
2022-08-05T09:53:23.139Z,52.20
2022-08-05T09:56:12.622Z,50.90
2022-08-05T09:58:42.029Z,50.70
2022-08-05T10:01:22.610Z,50.60
2022-08-05T10:04:10.395Z,51.40
2022-08-05T10:06:54.891Z,49.50
2022-08-05T10:09:29.428Z,49.50
2022-08-05T10:12:30.708Z,49.60
2022-08-05T10:15:22.044Z,49.20
2022-08-05T10:18:24.165Z,49.60
2022-08-05T10:20:56.477Z,48.90
2022-08-05T10:23:55.450Z,47.70
2022-08-05T10:26:15.594Z,47.70
2022-08-05T10:28:46.396Z,48.10
2022-08-05T10:32:47.786Z,47.10
2022-08-05T10:34:06.956Z,46.40
2022-08-05T10:36:41.636Z,47.90
2022-08-05T10:39:25.147Z,48.00
2022-08-05T10:42:33.865Z,47.50
2022-08-05T10:45:09.665Z,47.50
2022-08-05T10:48:30.159Z,47.20
2022-08-05T10:51:04.021Z,45.80
2022-08-05T10:53:42.589Z,47.60
2022-08-05T10:56:26.001Z,48.20
2022-08-05T10:58:54.291Z,47.40
2022-08-05T11:01:55.114Z,47.00
2022-08-05T11:04:26.351Z,47.10
2022-08-05T11:07:07.397Z,47.00
2022-08-05T11:09:46.120Z,46.90
2022-08-05T11:12:27.290Z,47.00
2022-08-05T11:15:20.734Z,48.10
2022-08-05T11:18:09.688Z,49.10
2022-08-05T11:20:41.750Z,49.00
2022-08-05T11:24:05.129Z,48.80
2022-08-05T11:26:43.145Z,49.80
2022-08-05T11:29:35.521Z,48.50
2022-08-05T11:32:28.092Z,48.10
2022-08-05T11:34:57.932Z,48.10
2022-08-05T11:38:27.962Z,47.10
2022-08-05T11:41:34.136Z,47.10
2022-08-05T11:44:08.474Z,46.90
2022-08-05T11:47:09.436Z,46.40
2022-08-05T11:49:42.958Z,47.00
2022-08-05T11:52:12.165Z,47.00
2022-08-05T11:54:41.809Z,47.80
2022-08-05T11:57:25.180Z,47.70
2022-08-05T11:59:56.377Z,47.70
2022-08-05T12:02:33.687Z,48.20
2022-08-05T12:05:06.730Z,47.60
2022-08-05T12:08:08.838Z,47.50
2022-08-05T12:10:43.254Z,47.20
2022-08-05T12:13:28.103Z,46.40
2022-08-05T12:16:14.427Z,45.90
2022-08-05T12:18:52.105Z,47.10
2022-08-05T12:21:26.684Z,47.30
2022-08-05T12:24:17.376Z,48.00
2022-08-05T12:26:48.924Z,47.50
2022-08-05T12:29:24.943Z,48.50
2022-08-05T12:31:58.499Z,49.50
2022-08-05T12:34:33.240Z,49.50
2022-08-05T12:37:17.092Z,49.70
2022-08-05T12:40:03.046Z,50.30
2022-08-05T12:42:32.241Z,51.30
2022-08-05T12:45:11.011Z,51.30
2022-08-05T12:47:43.588Z,52.40
2022-08-05T12:50:27.386Z,53.80
2022-08-05T12:53:00.361Z,54.30
2022-08-05T12:55:32.510Z,55.60
2022-08-05T12:58:49.788Z,55.80
2022-08-05T13:02:02.928Z,54.70
2022-08-05T13:03:43.243Z,56.40
2022-08-05T13:06:18.158Z,56.90
2022-08-05T13:08:51.931Z,57.70
2022-08-05T13:11:59.882Z,59.00
2022-08-05T13:14:24.835Z,59.50
2022-08-05T13:17:31.450Z,59.60
2022-08-05T13:20:04.459Z,59.90
2022-08-05T13:22:37.245Z,60.10
2022-08-05T13:25:19.313Z,60.30
2022-08-05T13:27:53.238Z,60.50
2022-08-05T13:30:33.776Z,60.30
2022-08-05T13:33:05.246Z,59.60
2022-08-05T13:35:47.477Z,59.70
2022-08-05T13:38:30.373Z,59.00
2022-08-05T13:41:00.373Z,59.60
2022-08-05T13:43:43.553Z,59.00
2022-08-05T13:46:14.943Z,57.40
2022-08-05T13:48:57.269Z,57.80
2022-08-05T13:51:36.422Z,56.90
2022-08-05T13:54:13.466Z,56.50
2022-08-05T13:56:45.536Z,56.00
2022-08-05T13:59:27.220Z,56.20
2022-08-05T14:02:00.080Z,55.00
2022-08-05T14:04:50.818Z,53.60
2022-08-05T14:07:26.057Z,53.40
2022-08-05T14:10:28.467Z,52.20
2022-08-05T14:12:57.886Z,51.60
2022-08-05T14:16:07.007Z,51.20
2022-08-05T14:18:17.564Z,50.80
2022-08-05T14:20:54.498Z,51.00
2022-08-05T14:23:26.038Z,52.30
2022-08-05T14:25:58.425Z,51.90
2022-08-05T14:28:31.177Z,51.80
2022-08-05T14:31:01.551Z,52.50
2022-08-05T14:33:56.981Z,52.30
2022-08-05T14:36:22.603Z,51.30
2022-08-05T14:38:51.548Z,52.00
2022-08-05T14:41:19.710Z,52.10
2022-08-05T14:43:57.704Z,50.50
2022-08-05T14:46:31.342Z,50.70
2022-08-05T14:49:06.887Z,51.70
2022-08-05T14:51:42.889Z,51.60
2022-08-05T14:54:29.867Z,51.40
2022-08-05T14:57:00.430Z,52.50
2022-08-05T14:59:35.342Z,52.70
2022-08-05T15:02:15.972Z,51.60
2022-08-05T15:04:47.826Z,51.20
2022-08-05T15:08:10.645Z,50.80
2022-08-05T15:10:09.763Z,50.20
2022-08-05T15:13:00.493Z,49.40
2022-08-05T15:15:55.032Z,50.40
2022-08-05T15:18:20.395Z,49.30
2022-08-05T15:20:48.770Z,49.50
2022-08-05T15:23:17.631Z,50.40
2022-08-05T15:25:52.840Z,50.70
2022-08-05T15:28:27.576Z,50.90
2022-08-05T15:30:56.420Z,55.70
2022-08-05T15:34:19.280Z,58.00
2022-08-05T15:36:17.638Z,58.40
2022-08-05T15:40:41.242Z,58.20
2022-08-05T15:41:55.837Z,58.70
2022-08-05T15:44:30.341Z,59.70
2022-08-05T15:47:01.940Z,63.70
2022-08-05T15:49:43.266Z,64.30
2022-08-05T15:52:52.036Z,65.50
2022-08-05T15:55:16.152Z,66.00
2022-08-05T15:57:45.244Z,66.60
2022-08-05T16:00:16.719Z,67.60
2022-08-05T16:02:45.642Z,66.40
2022-08-05T16:05:15.155Z,64.70
2022-08-05T16:07:46.518Z,63.80
2022-08-05T16:10:17.301Z,64.30
2022-08-05T16:12:53.271Z,62.20
2022-08-05T16:15:24.573Z,59.00
2022-08-05T16:18:51.786Z,57.30
2022-08-05T16:22:00.466Z,57.80
2022-08-05T16:24:39.421Z,56.90
2022-08-05T16:27:01.305Z,54.90
2022-08-05T16:29:31.400Z,52.40
2022-08-05T16:32:09.652Z,51.10
2022-08-05T16:34:41.767Z,50.80
2022-08-05T16:38:03.656Z,50.50
2022-08-05T16:40:06.266Z,50.00
2022-08-05T16:42:36.391Z,50.30
2022-08-05T16:45:06.009Z,50.30
2022-08-05T16:47:58.480Z,48.80
2022-08-05T16:50:30.505Z,49.90
2022-08-05T16:53:01.632Z,49.30
2022-08-05T16:55:47.172Z,49.40
2022-08-05T16:58:15.522Z,51.10
2022-08-05T17:00:49.512Z,51.00
2022-08-05T17:03:20.136Z,50.10
2022-08-05T17:05:54.306Z,49.80
2022-08-05T17:08:36.189Z,48.60
2022-08-05T17:11:19.615Z,47.50
2022-08-05T17:13:51.656Z,47.40
2022-08-05T17:16:32.727Z,47.90
2022-08-05T17:19:02.214Z,47.20
2022-08-05T17:21:35.305Z,46.90
2022-08-05T17:24:19.544Z,47.60
2022-08-05T17:27:01.324Z,46.40
2022-08-05T17:29:33.840Z,46.70
2022-08-05T17:32:17.186Z,46.80
2022-08-05T17:34:49.898Z,46.80
2022-08-05T17:37:40.788Z,46.30
2022-08-05T17:40:12.288Z,47.20
2022-08-05T17:42:49.725Z,47.10
2022-08-05T17:45:23.156Z,47.70
2022-08-05T17:47:56.229Z,50.10
2022-08-05T17:50:30.134Z,50.50
2022-08-05T17:53:04.661Z,50.40
2022-08-05T17:55:39.379Z,51.50
2022-08-05T17:58:11.043Z,51.00
2022-08-05T18:00:47.764Z,50.50
2022-08-05T18:03:56.241Z,51.90
2022-08-05T18:06:10.981Z,52.40
2022-08-05T18:08:44.987Z,51.90
2022-08-05T18:11:23.771Z,53.30
2022-08-05T18:13:59.743Z,53.00
2022-08-05T18:16:28.232Z,52.60
2022-08-05T18:18:56.181Z,53.60
2022-08-05T18:21:26.155Z,54.30
2022-08-05T18:23:55.677Z,54.20
2022-08-05T18:26:29.386Z,53.90
2022-08-05T18:29:02.725Z,54.70
2022-08-05T18:31:33.058Z,53.80
2022-08-05T18:34:06.183Z,54.80
2022-08-05T18:36:38.083Z,56.10
2022-08-05T18:39:22.652Z,55.50
2022-08-05T18:42:02.180Z,55.20
2022-08-05T18:44:48.903Z,56.70
2022-08-05T18:47:19.778Z,57.40
2022-08-05T18:50:10.582Z,56.50
2022-08-05T18:52:51.127Z,57.00
2022-08-05T18:55:21.539Z,57.80
2022-08-05T18:57:53.208Z,57.00
2022-08-05T19:00:27.166Z,57.10
2022-08-05T19:03:04.157Z,57.60
2022-08-05T19:06:12.136Z,58.00
2022-08-05T19:08:22.266Z,57.30
2022-08-05T19:11:04.597Z,58.00
2022-08-05T19:13:36.010Z,58.60
2022-08-05T19:16:22.065Z,57.60
2022-08-05T19:18:56.621Z,57.60
2022-08-05T19:21:27.721Z,57.70
2022-08-05T19:24:07.430Z,57.20
2022-08-05T19:26:55.056Z,57.00
2022-08-05T19:29:26.755Z,58.20
2022-08-05T19:32:11.134Z,57.50
2022-08-05T19:34:40.032Z,56.60
2022-08-05T19:37:08.819Z,57.00
2022-08-05T19:39:45.958Z,56.90
2022-08-05T19:42:34.926Z,55.60
2022-08-05T19:45:05.871Z,55.70
2022-08-05T19:47:37.237Z,56.00
2022-08-05T19:50:07.681Z,55.60
2022-08-05T19:52:38.921Z,56.00
2022-08-05T19:56:14.353Z,56.70
2022-08-05T19:58:19.515Z,56.20
2022-08-05T20:00:43.840Z,55.90
2022-08-05T20:03:12.171Z,56.70
2022-08-05T20:05:49.921Z,56.00
2022-08-05T20:08:25.361Z,55.70
2022-08-05T20:10:55.478Z,56.00
2022-08-05T20:13:54.696Z,56.10
2022-08-05T20:16:12.088Z,55.70
2022-08-05T20:18:40.088Z,55.40
2022-08-05T20:21:08.364Z,56.10
2022-08-05T20:23:51.253Z,55.90
2022-08-05T20:26:25.359Z,55.70
2022-08-05T20:28:57.026Z,56.20
2022-08-05T20:31:42.980Z,56.00
2022-08-05T20:34:17.250Z,55.70
2022-08-05T20:36:45.075Z,56.20
2022-08-05T20:39:16.163Z,56.80
2022-08-05T20:41:45.580Z,56.70
2022-08-05T20:44:29.004Z,55.70
2022-08-05T20:47:03.594Z,55.80
2022-08-05T20:49:33.306Z,56.90
2022-08-05T20:52:10.442Z,55.90
2022-08-05T20:54:43.025Z,54.80
2022-08-05T20:57:43.095Z,54.90
2022-08-05T21:00:40.310Z,56.10
2022-08-05T21:03:08.022Z,55.10
2022-08-05T21:05:54.312Z,54.50
2022-08-05T21:08:35.960Z,55.50
2022-08-05T21:11:12.082Z,55.60
2022-08-05T21:13:47.512Z,54.40
2022-08-05T21:16:29.346Z,54.50
2022-08-05T21:19:02.055Z,55.50
2022-08-05T21:21:39.019Z,55.20
2022-08-05T21:24:13.560Z,53.90
2022-08-05T21:26:50.499Z,53.90
2022-08-05T21:29:26.590Z,54.60
2022-08-05T21:32:00.605Z,54.20
2022-08-05T21:34:28.628Z,53.20
2022-08-05T21:36:59.905Z,53.50
2022-08-05T21:39:28.303Z,54.60
2022-08-05T21:42:01.070Z,54.70
2022-08-05T21:44:30.901Z,54.00
2022-08-05T21:46:59.916Z,53.30
2022-08-05T21:49:48.030Z,54.10
2022-08-05T21:52:26.924Z,54.20
2022-08-05T21:55:07.012Z,53.00
2022-08-05T21:57:42.617Z,53.00
2022-08-05T22:00:12.530Z,53.70
2022-08-05T22:02:41.664Z,53.70
2022-08-05T22:05:11.837Z,52.80
2022-08-05T22:07:59.017Z,52.40
2022-08-05T22:10:28.181Z,52.90
2022-08-05T22:14:05.077Z,53.60
2022-08-05T22:15:56.538Z,54.20
2022-08-05T22:18:33.027Z,54.20
2022-08-05T22:21:00.905Z,52.70
2022-08-05T22:24:00.810Z,52.30
2022-08-05T22:26:49.684Z,53.10
2022-08-05T22:29:26.799Z,54.10
2022-08-05T22:31:59.353Z,54.20
2022-08-05T22:34:28.619Z,52.90
2022-08-05T22:36:59.913Z,52.60
2022-08-05T22:39:33.233Z,53.40
2022-08-05T22:42:11.118Z,54.20
2022-08-05T22:44:53.832Z,55.30
2022-08-05T22:47:30.107Z,54.10
2022-08-05T22:50:23.079Z,52.80
2022-08-05T22:52:53.382Z,53.40
2022-08-05T22:55:22.953Z,54.30
2022-08-05T22:57:54.976Z,55.00
2022-08-05T23:00:24.262Z,54.80
2022-08-05T23:02:54.745Z,53.60
2022-08-05T23:05:23.550Z,53.40
2022-08-05T23:07:52.909Z,54.30
2022-08-05T23:10:24.008Z,55.00
2022-08-05T23:12:54.276Z,55.70
2022-08-05T23:15:29.318Z,55.10
2022-08-05T23:18:02.214Z,53.70
2022-08-05T23:20:37.472Z,53.60
2022-08-05T23:23:08.557Z,54.30
2022-08-05T23:25:50.869Z,54.80
2022-08-05T23:28:22.562Z,55.30
2022-08-05T23:30:53.042Z,53.90
2022-08-05T23:33:26.474Z,52.70
2022-08-05T23:36:13.726Z,52.80
2022-08-05T23:38:42.970Z,52.90
2022-08-05T23:41:12.083Z,53.20
2022-08-05T23:44:04.873Z,52.90
2022-08-05T23:46:30.711Z,51.30
2022-08-05T23:49:00.533Z,50.00
2022-08-05T23:51:53.852Z,50.00
2022-08-05T23:54:25.764Z,50.60
2022-08-05T23:56:55.916Z,51.10
